createdAt,value
2018-10-15T00:00:19.330Z,90.20
2018-10-15T00:02:48.173Z,90.30
2018-10-15T00:05:16.801Z,90.20
2018-10-15T00:07:45.471Z,90.30
2018-10-15T00:10:14.079Z,90.40
2018-10-15T00:12:43.304Z,90.40
2018-10-15T00:15:27.746Z,90.20
2018-10-15T00:17:56.451Z,90.10
2018-10-15T00:20:25.373Z,89.80
2018-10-15T00:22:54.837Z,89.70
2018-10-15T00:25:23.753Z,89.60
2018-10-15T00:27:52.631Z,89.90
2018-10-15T00:30:21.577Z,89.90
2018-10-15T00:32:50.494Z,89.90
2018-10-15T00:35:19.131Z,90.10
2018-10-15T00:37:47.907Z,90.10
2018-10-15T00:40:16.545Z,90.20
2018-10-15T00:42:45.390Z,90.30
2018-10-15T00:45:14.753Z,90.30
2018-10-15T00:47:43.643Z,90.10
2018-10-15T00:50:13.340Z,89.80
2018-10-15T00:52:42.463Z,89.70
2018-10-15T00:55:12.318Z,89.70
2018-10-15T00:57:41.256Z,89.70
2018-10-15T01:00:12.922Z,89.40
2018-10-15T01:02:41.786Z,89.50
2018-10-15T01:05:12.702Z,89.40
2018-10-15T01:07:41.830Z,89.40
2018-10-15T01:10:12.183Z,88.90
2018-10-15T01:12:41.259Z,89.10
2018-10-15T01:15:11.576Z,89.20
2018-10-15T01:17:40.936Z,89.10
2018-10-15T01:20:11.490Z,89.30
2018-10-15T01:22:40.316Z,89.40
2018-10-15T01:25:10.798Z,89.50
2018-10-15T01:27:39.971Z,89.70
2018-10-15T01:30:13.294Z,89.60
2018-10-15T01:32:42.706Z,89.60
2018-10-15T01:35:11.567Z,89.70
2018-10-15T01:37:40.436Z,89.90
2018-10-15T01:40:09.131Z,90.00
2018-10-15T01:42:38.803Z,90.10
2018-10-15T01:45:14.022Z,90.30
2018-10-15T01:47:42.716Z,90.30
2018-10-15T01:50:11.387Z,90.30
2018-10-15T01:52:40.112Z,90.20
2018-10-15T01:55:09.439Z,90.10
2018-10-15T01:57:38.270Z,90.10
2018-10-15T02:00:08.324Z,90.20
2018-10-15T02:02:37.445Z,90.70
2018-10-15T02:05:06.898Z,90.80
2018-10-15T02:07:35.556Z,90.70
2018-10-15T02:10:04.268Z,90.80
2018-10-15T02:12:32.997Z,90.70
2018-10-15T02:15:01.632Z,90.60
2018-10-15T02:17:30.420Z,90.70
2018-10-15T02:19:59.105Z,91.10
2018-10-15T02:22:27.758Z,91.00
2018-10-15T02:24:56.473Z,90.70
2018-10-15T02:27:25.517Z,90.70
2018-10-15T02:29:54.372Z,90.50
2018-10-15T02:32:23.055Z,90.30
2018-10-15T02:34:52.059Z,90.20
2018-10-15T02:37:20.736Z,90.30
2018-10-15T02:39:49.756Z,90.30
2018-10-15T02:42:18.541Z,90.50
2018-10-15T02:44:47.311Z,90.50
2018-10-15T02:47:16.004Z,90.70
2018-10-15T02:49:44.672Z,91.00
2018-10-15T02:52:13.368Z,91.30
2018-10-15T02:54:42.041Z,91.30
2018-10-15T02:57:11.085Z,91.40
2018-10-15T02:59:39.712Z,91.50
2018-10-15T03:02:08.476Z,91.70
2018-10-15T03:04:37.515Z,91.70
2018-10-15T03:07:06.465Z,91.80
2018-10-15T03:09:35.135Z,91.90
2018-10-15T03:12:03.902Z,92.10
2018-10-15T03:14:33.770Z,92.10
2018-10-15T03:17:02.448Z,92.00
2018-10-15T03:19:31.525Z,91.70
2018-10-15T03:22:00.312Z,91.70
2018-10-15T03:24:29.000Z,91.70
2018-10-15T03:26:57.699Z,91.50
2018-10-15T03:29:26.554Z,91.50
2018-10-15T03:31:55.291Z,91.70
2018-10-15T03:34:23.954Z,91.80
2018-10-15T03:36:52.618Z,91.80
2018-10-15T03:39:21.335Z,91.70
2018-10-15T03:41:50.234Z,91.60
2018-10-15T03:44:19.032Z,91.30
2018-10-15T03:46:47.724Z,91.10
2018-10-15T03:49:16.910Z,91.10
2018-10-15T03:51:45.962Z,91.00
2018-10-15T03:54:14.773Z,90.90
2018-10-15T03:56:43.498Z,90.80
2018-10-15T03:59:12.305Z,90.80
2018-10-15T04:01:40.997Z,90.80
2018-10-15T04:04:09.819Z,90.90
2018-10-15T04:06:38.551Z,91.30
2018-10-15T04:09:09.995Z,91.40
2018-10-15T04:11:38.735Z,91.50
2018-10-15T04:14:08.207Z,91.50
2018-10-15T04:16:37.273Z,91.50
2018-10-15T04:19:06.669Z,91.50
2018-10-15T04:21:35.741Z,91.70
2018-10-15T04:24:05.752Z,91.80
2018-10-15T04:26:34.485Z,91.80
2018-10-15T04:29:03.233Z,91.80
2018-10-15T04:31:32.182Z,91.80
2018-10-15T04:34:00.957Z,92.20
2018-10-15T04:36:29.643Z,92.20
2018-10-15T04:38:59.009Z,92.20
2018-10-15T04:41:28.189Z,92.20
2018-10-15T04:43:56.984Z,92.10
2018-10-15T04:46:25.668Z,91.90
2018-10-15T04:48:55.921Z,91.80
2018-10-15T04:51:24.827Z,91.60
2018-10-15T04:53:53.666Z,91.60
2018-10-15T04:56:22.383Z,91.60
2018-10-15T04:58:51.190Z,91.40
2018-10-15T05:01:19.943Z,91.40
2018-10-15T05:03:50.569Z,91.40
2018-10-15T05:06:20.822Z,91.60
2018-10-15T05:08:50.000Z,91.60
2018-10-15T05:11:19.473Z,91.40
2018-10-15T05:13:48.437Z,91.40
2018-10-15T05:16:22.964Z,91.40
2018-10-15T05:18:51.887Z,91.60
2018-10-15T05:21:20.922Z,91.60
2018-10-15T05:23:49.473Z,91.80
2018-10-15T05:26:18.287Z,91.80
2018-10-15T05:28:47.305Z,92.10
2018-10-15T05:31:16.061Z,92.20
2018-10-15T05:33:44.725Z,92.40
2018-10-15T05:36:13.523Z,92.70
2018-10-15T05:38:42.253Z,92.90
2018-10-15T05:41:13.605Z,93.00
2018-10-15T05:43:43.100Z,93.20
2018-10-15T05:46:12.909Z,93.40
2018-10-15T05:48:41.766Z,93.40
2018-10-15T05:51:10.457Z,93.60
2018-10-15T05:53:39.165Z,93.80
2018-10-15T05:56:11.013Z,93.90
2018-10-15T05:58:41.569Z,93.90
2018-10-15T06:01:10.309Z,93.90
2018-10-15T06:03:39.028Z,93.80
2018-10-15T06:06:07.907Z,93.60
2018-10-15T06:08:36.849Z,93.50
2018-10-15T06:11:05.568Z,93.40
2018-10-15T06:13:34.284Z,93.20
2018-10-15T06:16:02.952Z,93.00
2018-10-15T06:18:31.624Z,92.80
2018-10-15T06:21:00.304Z,92.50
2018-10-15T06:23:29.200Z,92.30
2018-10-15T06:25:57.916Z,92.10
2018-10-15T06:28:27.163Z,91.80
2018-10-15T06:30:56.298Z,91.50
2018-10-15T06:33:24.991Z,91.10
2018-10-15T06:35:53.661Z,90.80
2018-10-15T06:38:22.771Z,90.80
2018-10-15T06:40:51.430Z,90.80
2018-10-15T06:43:20.202Z,90.80
2018-10-15T06:45:49.098Z,90.80
2018-10-15T06:51:32.249Z,90.70
2018-10-15T06:54:00.958Z,90.60
2018-10-15T06:56:29.681Z,90.40
2018-10-15T06:58:59.552Z,90.30
2018-10-15T07:01:28.276Z,90.10
2018-10-15T07:03:57.079Z,90.10
2018-10-15T07:06:26.096Z,90.00
2018-10-15T07:08:54.874Z,89.90
2018-10-15T07:11:23.888Z,89.80
2018-10-15T07:13:52.706Z,89.50
2018-10-15T07:16:21.532Z,89.20
2018-10-15T07:18:50.196Z,88.70
2018-10-15T07:21:18.898Z,88.00
2018-10-15T07:23:48.260Z,88.10
2018-10-15T07:26:17.335Z,88.10
2018-10-15T07:28:46.035Z,88.30
2018-10-15T07:31:14.765Z,88.10
2018-10-15T07:33:43.564Z,87.40
2018-10-15T07:36:12.293Z,87.30
2018-10-15T07:38:41.032Z,87.00
2018-10-15T07:41:09.765Z,85.80
2018-10-15T07:43:38.405Z,86.00
2018-10-15T07:46:08.062Z,85.90
2018-10-15T07:48:36.796Z,84.60
2018-10-15T07:51:06.273Z,82.40
2018-10-15T07:53:35.029Z,82.30
2018-10-15T07:56:03.827Z,82.30
2018-10-15T07:58:38.891Z,82.50
2018-10-15T08:01:07.624Z,83.40
2018-10-15T08:03:36.342Z,83.00
2018-10-15T08:06:05.966Z,83.00
2018-10-15T08:08:37.293Z,82.70
2018-10-15T08:11:19.130Z,82.70
2018-10-15T08:13:47.822Z,82.20
2018-10-15T08:16:17.029Z,80.60
2018-10-15T08:18:45.644Z,80.10
2018-10-15T08:21:14.415Z,79.40
2018-10-15T08:23:43.094Z,79.40
2018-10-15T08:26:11.878Z,79.20
2018-10-15T08:28:40.766Z,78.40
2018-10-15T08:31:09.491Z,77.00
2018-10-15T08:33:51.941Z,76.50
2018-10-15T08:36:23.755Z,76.40
2018-10-15T08:38:52.495Z,77.10
2018-10-15T08:41:21.343Z,75.30
2018-10-15T08:43:50.075Z,74.00
2018-10-15T08:46:18.823Z,72.80
2018-10-15T08:48:47.553Z,72.70
2018-10-15T08:51:16.301Z,73.20
2018-10-15T08:53:45.043Z,72.60
2018-10-15T08:56:14.153Z,71.00
2018-10-15T08:58:42.896Z,70.60
2018-10-15T09:01:11.719Z,69.80
2018-10-15T09:03:40.446Z,69.80
2018-10-15T09:06:09.259Z,68.80
2018-10-15T09:08:38.598Z,68.60
2018-10-15T09:11:07.812Z,68.50
2018-10-15T09:13:36.538Z,68.50
2018-10-15T09:16:05.494Z,68.10
2018-10-15T09:18:34.231Z,68.60
2018-10-15T09:21:03.038Z,68.00
2018-10-15T09:23:31.936Z,68.10
2018-10-15T09:26:00.999Z,67.90
2018-10-15T09:28:29.615Z,66.60
2018-10-15T09:30:58.439Z,65.40
2018-10-15T09:33:27.228Z,66.00
2018-10-15T09:35:56.028Z,65.70
2018-10-15T09:38:24.849Z,64.40
2018-10-15T09:40:53.574Z,64.60
2018-10-15T09:43:22.256Z,64.20
2018-10-15T09:45:53.925Z,63.50
2018-10-15T09:48:22.697Z,61.90
2018-10-15T09:50:51.430Z,62.00
2018-10-15T09:53:20.127Z,62.00
2018-10-15T09:55:49.454Z,61.30
2018-10-15T09:58:18.253Z,60.20
2018-10-15T10:00:50.125Z,60.60
2018-10-15T10:03:18.839Z,59.70
2018-10-15T10:05:47.572Z,59.70
2018-10-15T10:08:24.596Z,59.00
2018-10-15T10:10:53.564Z,59.40
2018-10-15T10:13:22.273Z,59.00
2018-10-15T10:15:50.968Z,59.40
2018-10-15T10:18:19.852Z,58.80
2018-10-15T10:20:48.596Z,58.50
2018-10-15T10:23:17.236Z,57.50
2018-10-15T10:25:47.978Z,58.20
2018-10-15T10:28:16.928Z,58.00
2018-10-15T10:30:47.591Z,58.50
2018-10-15T10:33:16.313Z,57.80
2018-10-15T10:36:06.001Z,58.00
2018-10-15T10:38:46.256Z,56.90
2018-10-15T10:41:15.988Z,56.80
2018-10-15T10:43:45.093Z,56.70
2018-10-15T10:46:13.839Z,56.80
2018-10-15T10:48:42.572Z,56.50
2018-10-15T10:51:11.300Z,56.20
2018-10-15T10:53:40.024Z,56.00
2018-10-15T10:56:08.724Z,55.80
2018-10-15T10:58:43.454Z,54.50
2018-10-15T11:01:12.167Z,55.30
2018-10-15T11:03:41.442Z,55.20
2018-10-15T11:06:10.200Z,55.20
2018-10-15T11:08:39.080Z,54.80
2018-10-15T11:11:09.089Z,54.40
2018-10-15T11:13:37.779Z,54.50
2018-10-15T11:16:08.129Z,53.70
2018-10-15T11:18:37.335Z,52.80
2018-10-15T11:21:06.554Z,53.40
2018-10-15T11:23:36.492Z,52.60
2018-10-15T11:26:05.341Z,51.90
2018-10-15T11:28:34.100Z,51.70
2018-10-15T11:31:02.842Z,51.90
2018-10-15T11:33:31.569Z,50.30
2018-10-15T11:36:00.311Z,51.50
2018-10-15T11:38:29.024Z,51.40
2018-10-15T11:40:57.727Z,51.60
2018-10-15T11:43:26.574Z,49.80
2018-10-15T11:45:55.208Z,51.00
2018-10-15T11:48:24.231Z,49.40
2018-10-15T11:50:53.022Z,50.30
2018-10-15T11:53:22.021Z,51.30
2018-10-15T11:55:50.750Z,51.20
2018-10-15T11:58:19.460Z,52.10
2018-10-15T12:00:49.571Z,50.80
2018-10-15T12:03:18.297Z,52.40
2018-10-15T12:05:48.133Z,52.50
2018-10-15T12:08:17.234Z,52.40
2018-10-15T12:10:45.951Z,51.00
2018-10-15T12:13:14.709Z,49.80
2018-10-15T12:15:43.431Z,51.60
2018-10-15T12:18:12.124Z,50.10
2018-10-15T12:20:40.805Z,51.60
2018-10-15T12:23:09.519Z,51.20
2018-10-15T12:25:38.277Z,50.90
2018-10-15T12:28:07.065Z,49.30
2018-10-15T12:30:35.877Z,50.70
2018-10-15T12:33:05.107Z,50.20
2018-10-15T12:35:34.737Z,51.00
2018-10-15T12:38:03.461Z,50.80
2018-10-15T12:40:32.209Z,50.20
2018-10-15T12:43:01.448Z,50.30
2018-10-15T12:45:35.345Z,50.90
2018-10-15T12:48:04.112Z,50.80
2018-10-15T12:50:32.795Z,50.60
2018-10-15T12:53:15.407Z,49.20
2018-10-15T12:55:44.114Z,49.20
2018-10-15T12:58:13.472Z,49.30
2018-10-15T13:00:43.059Z,48.60
2018-10-15T13:03:12.493Z,48.80
2018-10-15T13:05:41.215Z,49.80
2018-10-15T13:08:10.181Z,50.70
2018-10-15T13:10:38.972Z,50.50
2018-10-15T13:13:07.584Z,49.70
2018-10-15T13:15:36.230Z,48.60
2018-10-15T13:18:04.940Z,49.10
2018-10-15T13:20:33.657Z,49.70
2018-10-15T13:23:02.425Z,50.70
2018-10-15T13:25:42.694Z,49.60
2018-10-15T13:28:12.364Z,51.30
2018-10-15T13:30:44.946Z,50.60
2018-10-15T13:33:21.849Z,50.10
2018-10-15T13:35:52.775Z,48.60
2018-10-15T13:38:21.545Z,48.10
2018-10-15T13:40:50.229Z,47.80
2018-10-15T13:43:19.576Z,48.30
2018-10-15T13:45:48.220Z,48.00
2018-10-15T13:48:16.896Z,47.30
2018-10-15T13:50:45.610Z,47.30
2018-10-15T13:53:14.353Z,47.00
2018-10-15T13:55:43.292Z,46.80
2018-10-15T13:58:13.088Z,46.70
2018-10-15T14:00:42.948Z,46.40
2018-10-15T14:03:13.489Z,46.10
2018-10-15T14:05:42.144Z,45.50
2018-10-15T14:08:10.787Z,45.30
2018-10-15T14:10:39.484Z,45.50
2018-10-15T14:13:08.209Z,44.50
2018-10-15T14:15:36.853Z,43.60
2018-10-15T14:18:06.507Z,44.00
2018-10-15T14:20:35.187Z,43.80
2018-10-15T14:23:03.908Z,43.40
2018-10-15T14:25:32.544Z,43.10
2018-10-15T14:28:01.373Z,42.50
2018-10-15T14:30:30.049Z,42.40
2018-10-15T14:32:58.697Z,42.50
2018-10-15T14:35:27.419Z,41.80
2018-10-15T14:37:56.091Z,41.70
2018-10-15T14:40:24.754Z,41.90
2018-10-15T14:42:54.731Z,42.10
2018-10-15T14:45:23.438Z,42.30
2018-10-15T14:47:52.067Z,42.30
2018-10-15T14:50:21.624Z,41.80
2018-10-15T14:52:51.475Z,41.80
2018-10-15T14:55:20.560Z,40.90
2018-10-15T14:57:49.272Z,40.50
2018-10-15T15:00:18.477Z,40.50
2018-10-15T15:02:47.023Z,40.70
2018-10-15T15:05:16.101Z,40.40
2018-10-15T15:07:44.841Z,39.80
2018-10-15T15:10:25.140Z,40.10
2018-10-15T15:13:04.876Z,39.80
2018-10-15T15:15:34.327Z,40.50
2018-10-15T15:18:02.944Z,40.50
2018-10-15T15:20:31.776Z,40.60
2018-10-15T15:23:00.496Z,40.90
2018-10-15T15:25:29.313Z,41.20
2018-10-15T15:30:33.035Z,41.70
2018-10-15T15:33:01.721Z,41.20
2018-10-15T15:35:30.495Z,41.80
2018-10-15T15:37:59.233Z,42.00
2018-10-15T15:40:27.869Z,41.40
2018-10-15T15:42:57.206Z,41.70
2018-10-15T15:45:26.882Z,42.20
2018-10-15T15:48:00.973Z,42.40
2018-10-15T15:50:30.844Z,42.80
2018-10-15T15:53:00.411Z,43.60
2018-10-15T15:55:30.287Z,45.60
2018-10-15T16:00:52.560Z,49.40
2018-10-15T16:03:22.394Z,51.70
2018-10-15T16:05:53.556Z,53.20
2018-10-15T16:08:22.408Z,55.00
2018-10-15T16:10:51.289Z,56.90
2018-10-15T16:13:20.403Z,57.90
2018-10-15T16:15:49.218Z,58.90
2018-10-15T16:18:19.534Z,59.80
2018-10-15T16:20:48.252Z,60.50
2018-10-15T16:23:17.200Z,61.30
2018-10-15T16:25:46.329Z,62.00
2018-10-15T16:28:15.271Z,62.30
2018-10-15T16:30:44.110Z,62.60
2018-10-15T16:33:12.952Z,62.70
2018-10-15T16:35:43.964Z,62.90
2018-10-15T16:38:13.325Z,62.90
2018-10-15T16:40:44.527Z,63.00
2018-10-15T16:43:13.337Z,64.00
2018-10-15T16:45:42.148Z,64.20
2018-10-15T16:48:10.910Z,64.30
2018-10-15T16:50:39.633Z,64.80
2018-10-15T16:53:10.292Z,65.90
2018-10-15T16:55:41.017Z,65.80
2018-10-15T16:58:09.716Z,66.20
2018-10-15T17:00:38.473Z,66.70
2018-10-15T17:03:07.331Z,66.70
2018-10-15T17:05:36.136Z,67.20
2018-10-15T17:08:04.953Z,68.00
2018-10-15T17:10:33.708Z,68.50
2018-10-15T17:13:02.480Z,68.80
2018-10-15T17:15:31.183Z,68.90
2018-10-15T17:17:59.976Z,69.20
2018-10-15T17:20:28.728Z,69.50
2018-10-15T17:22:58.485Z,69.90
2018-10-15T17:25:46.663Z,70.60
2018-10-15T17:28:17.628Z,70.80
2018-10-15T17:30:48.248Z,71.40
2018-10-15T17:33:18.063Z,71.60
2018-10-15T17:35:48.435Z,72.10
2018-10-15T17:38:17.724Z,72.20
2018-10-15T17:40:47.424Z,72.50
2018-10-15T17:43:17.022Z,72.70
2018-10-15T17:45:46.291Z,73.00
2018-10-15T17:48:17.347Z,73.40
2018-10-15T17:50:46.240Z,73.20
2018-10-15T17:53:15.035Z,73.80
2018-10-15T17:55:44.048Z,74.00
2018-10-15T17:58:12.836Z,74.30
2018-10-15T18:00:42.579Z,74.40
2018-10-15T18:03:11.380Z,74.30
2018-10-15T18:05:40.718Z,74.30
2018-10-15T18:08:09.883Z,74.60
2018-10-15T18:10:39.040Z,75.00
2018-10-15T18:13:07.869Z,75.30
2018-10-15T18:15:36.557Z,75.50
2018-10-15T18:18:05.304Z,75.70
2018-10-15T18:20:34.010Z,76.30
2018-10-15T18:23:02.725Z,77.20
2018-10-15T18:25:32.631Z,77.30
2018-10-15T18:28:01.364Z,77.90
2018-10-15T18:30:30.103Z,78.00
2018-10-15T18:32:58.780Z,78.10
2018-10-15T18:35:27.668Z,78.10
2018-10-15T18:37:56.471Z,78.10
2018-10-15T18:40:31.655Z,78.30
2018-10-15T18:43:00.464Z,78.60
2018-10-15T18:45:29.773Z,78.50
2018-10-15T18:47:58.987Z,78.50
2018-10-15T18:50:28.622Z,78.80
2018-10-15T18:52:58.542Z,79.10
2018-10-15T18:55:28.438Z,79.40
2018-10-15T18:57:58.369Z,79.30
2018-10-15T19:00:28.070Z,79.60
2018-10-15T19:02:57.768Z,80.00
2018-10-15T19:05:26.672Z,80.70
2018-10-15T19:07:55.593Z,81.10
2018-10-15T19:10:25.340Z,81.10
2018-10-15T19:12:54.758Z,81.30
2018-10-15T19:15:23.590Z,81.50
2018-10-15T19:17:53.529Z,81.50
2018-10-15T19:20:23.024Z,81.40
2018-10-15T19:22:51.873Z,82.20
2018-10-15T19:25:21.644Z,81.90
2018-10-15T19:27:51.497Z,82.00
2018-10-15T19:30:20.493Z,82.00
2018-10-15T19:32:49.600Z,82.60
2018-10-15T19:35:18.311Z,82.40
2018-10-15T19:37:47.108Z,82.10
2018-10-15T19:40:16.199Z,82.40
2018-10-15T19:42:44.982Z,82.70
2018-10-15T19:45:13.712Z,82.80
2018-10-15T19:47:42.404Z,83.10
2018-10-15T19:50:11.088Z,83.50
2018-10-15T19:52:39.753Z,83.70
2018-10-15T19:55:08.588Z,83.70
2018-10-15T19:57:37.721Z,83.90
2018-10-15T20:00:13.342Z,84.10
2018-10-15T20:02:42.322Z,84.00
2018-10-15T20:05:13.457Z,84.10
2018-10-15T20:07:42.744Z,84.20
2018-10-15T20:10:19.716Z,84.40
2018-10-15T20:12:48.360Z,84.90
2018-10-15T20:15:17.065Z,85.60
2018-10-15T20:17:45.831Z,85.60
2018-10-15T20:20:14.457Z,85.50
2018-10-15T20:22:43.195Z,85.30
2018-10-15T20:25:12.340Z,85.40
2018-10-15T20:27:42.520Z,85.40
2018-10-15T20:30:12.258Z,85.20
2018-10-15T20:32:41.057Z,85.30
2018-10-15T20:35:10.992Z,85.70
2018-10-15T20:37:39.733Z,85.60
2018-10-15T20:40:09.386Z,85.90
2018-10-15T20:42:38.182Z,85.90
2018-10-15T20:45:07.396Z,85.90
2018-10-15T20:47:36.135Z,85.90
2018-10-15T20:50:05.681Z,86.00
2018-10-15T20:52:34.367Z,86.30
2018-10-15T20:55:03.107Z,86.40
2018-10-15T20:57:31.971Z,86.80
2018-10-15T21:00:00.735Z,87.00
2018-10-15T21:02:29.514Z,87.00
2018-10-15T21:04:58.208Z,87.10
2018-10-15T21:07:27.228Z,87.00
2018-10-15T21:09:56.045Z,87.00
2018-10-15T21:12:24.764Z,87.20
2018-10-15T21:14:53.599Z,87.20
2018-10-15T21:17:22.372Z,87.30
2018-10-15T21:19:51.142Z,87.40
2018-10-15T21:22:19.904Z,87.60
2018-10-15T21:24:48.649Z,87.60
2018-10-15T21:27:17.353Z,87.60
2018-10-15T21:29:46.169Z,87.70
2018-10-15T21:32:14.916Z,87.60
2018-10-15T21:34:43.653Z,87.80
2018-10-15T21:37:12.321Z,88.00
2018-10-15T21:39:41.017Z,88.00
2018-10-15T21:42:09.901Z,88.20
2018-10-15T21:44:38.581Z,88.20
2018-10-15T21:47:07.635Z,88.10
2018-10-15T21:49:36.516Z,88.00
2018-10-15T21:52:05.856Z,88.10
2018-10-15T21:54:34.559Z,87.90
2018-10-15T21:57:03.725Z,88.00
2018-10-15T21:59:32.472Z,88.20
2018-10-15T22:02:01.156Z,88.30
2018-10-15T22:04:29.884Z,88.30
2018-10-15T22:06:58.564Z,88.40
2018-10-15T22:09:27.363Z,88.40
2018-10-15T22:11:56.069Z,88.60
2018-10-15T22:14:24.767Z,88.50
2018-10-15T22:16:53.506Z,88.50
2018-10-15T22:19:22.204Z,88.50
2018-10-15T22:21:50.874Z,88.60
2018-10-15T22:24:19.572Z,88.80
2018-10-15T22:26:48.256Z,88.60
2018-10-15T22:29:16.981Z,88.90
2018-10-15T22:31:45.678Z,89.60
2018-10-15T22:34:14.363Z,89.80
2018-10-15T22:36:43.022Z,90.00
2018-10-15T22:39:13.107Z,90.00
2018-10-15T22:41:42.345Z,90.00
2018-10-15T22:44:11.119Z,90.00
2018-10-15T22:46:40.448Z,90.10
2018-10-15T22:49:09.765Z,90.10
2018-10-15T22:51:38.559Z,90.10
2018-10-15T22:54:07.250Z,90.30
2018-10-15T22:56:37.176Z,90.40
2018-10-15T22:59:05.950Z,90.40
2018-10-15T23:01:34.714Z,90.60
2018-10-15T23:04:03.454Z,90.70
2018-10-15T23:06:32.221Z,90.90
2018-10-15T23:09:00.965Z,91.30
2018-10-15T23:11:29.686Z,91.50
2018-10-15T23:13:58.365Z,91.40
2018-10-15T23:16:27.077Z,91.20
2018-10-15T23:18:55.782Z,91.00
2018-10-15T23:21:24.431Z,90.90
2018-10-15T23:23:53.119Z,90.90
2018-10-15T23:26:21.883Z,90.80
2018-10-15T23:28:50.597Z,90.80
2018-10-15T23:31:19.340Z,90.90
2018-10-15T23:33:48.394Z,91.00
2018-10-15T23:36:17.076Z,91.10
2018-10-15T23:38:45.801Z,90.90
2018-10-15T23:41:14.487Z,90.60
2018-10-15T23:43:43.155Z,90.30
2018-10-15T23:46:11.948Z,90.30
2018-10-15T23:48:40.590Z,90.30
2018-10-15T23:51:09.275Z,90.30
2018-10-15T23:53:37.946Z,90.70
2018-10-15T23:56:06.722Z,90.60
2018-10-15T23:58:35.384Z,90.40
